createdAt,value
2022-10-31T00:00:50.061Z,7.53
2022-10-31T00:03:18.342Z,6.73
2022-10-31T00:05:48.373Z,11.70
2022-10-31T00:08:16.337Z,9.37
2022-10-31T00:10:44.994Z,8.63
2022-10-31T00:13:15.870Z,11.40
2022-10-31T00:15:43.824Z,15.93
2022-10-31T00:18:12.256Z,13.33
2022-10-31T00:20:41.383Z,12.80
2022-10-31T00:23:09.372Z,9.17
2022-10-31T00:25:40.743Z,7.63
2022-10-31T00:28:11.244Z,9.30
2022-10-31T00:30:40.665Z,8.37
2022-10-31T00:33:08.983Z,7.47
2022-10-31T00:35:38.720Z,6.83
2022-10-31T00:38:07.019Z,19.97
2022-10-31T00:40:35.017Z,16.80
2022-10-31T00:43:03.593Z,7.13
2022-10-31T00:45:32.961Z,6.77
2022-10-31T00:48:02.745Z,8.07
2022-10-31T00:50:32.687Z,6.90
2022-10-31T00:53:01.372Z,6.90
2022-10-31T00:55:29.423Z,6.47
2022-10-31T00:57:58.747Z,6.17
2022-10-31T01:00:27.883Z,6.13
2022-10-31T01:02:56.133Z,6.67
2022-10-31T01:05:25.699Z,7.50
2022-10-31T01:07:53.657Z,12.23
2022-10-31T01:10:21.679Z,7.43
2022-10-31T01:12:51.746Z,7.20
2022-10-31T01:15:22.075Z,6.70
2022-10-31T01:17:51.378Z,7.53
2022-10-31T01:20:20.027Z,12.87
2022-10-31T01:22:49.602Z,8.83
2022-10-31T01:25:17.692Z,8.03
2022-10-31T01:27:45.597Z,9.07
2022-10-31T01:30:14.143Z,11.20
2022-10-31T01:32:41.934Z,12.17
2022-10-31T01:35:10.062Z,11.63
2022-10-31T01:37:37.877Z,11.80
2022-10-31T01:40:09.023Z,10.43
2022-10-31T01:42:36.813Z,11.20
2022-10-31T01:45:07.153Z,9.70
2022-10-31T01:47:42.899Z,8.33
2022-10-31T01:50:30.355Z,7.97
2022-10-31T01:52:59.011Z,8.90
2022-10-31T01:55:31.908Z,8.43
2022-10-31T01:58:03.917Z,7.57
2022-10-31T02:00:32.510Z,8.30
2022-10-31T02:03:01.114Z,7.80
2022-10-31T02:05:31.634Z,7.57
2022-10-31T02:08:03.665Z,7.70
2022-10-31T02:10:34.830Z,7.33
2022-10-31T02:13:05.856Z,6.90
2022-10-31T02:15:40.004Z,7.20
2022-10-31T02:18:09.535Z,7.07
2022-10-31T02:20:46.000Z,7.40
2022-10-31T02:23:55.898Z,6.27
2022-10-31T02:26:55.779Z,7.90
2022-10-31T02:30:09.306Z,8.57
2022-10-31T02:32:49.963Z,7.30
2022-10-31T02:35:32.031Z,7.03
2022-10-31T02:38:06.553Z,6.77
2022-10-31T02:40:55.596Z,7.17
2022-10-31T02:44:47.043Z,7.03
2022-10-31T02:47:18.187Z,7.43
2022-10-31T02:49:53.648Z,6.73
2022-10-31T02:52:23.379Z,7.17
2022-10-31T02:54:52.114Z,7.53
2022-10-31T02:57:26.818Z,7.53
2022-10-31T02:59:59.517Z,7.77
2022-10-31T03:02:48.279Z,7.57
2022-10-31T03:05:51.108Z,7.43
2022-10-31T03:08:26.281Z,6.97
2022-10-31T03:11:00.638Z,6.73
2022-10-31T03:13:37.184Z,6.90
2022-10-31T03:16:12.205Z,6.47
2022-10-31T03:18:42.577Z,6.50
2022-10-31T03:21:15.733Z,7.30
2022-10-31T03:23:47.626Z,6.83
2022-10-31T03:26:23.676Z,6.40
2022-10-31T03:28:58.432Z,6.93
2022-10-31T03:32:00.829Z,6.80
2022-10-31T03:50:24.583Z,7.00
2022-10-31T03:53:54.916Z,6.87
2022-10-31T03:56:51.584Z,6.90
2022-10-31T03:59:42.852Z,6.77
2022-10-31T04:05:43.665Z,6.60
2022-10-31T04:08:24.465Z,6.67
2022-10-31T04:11:01.036Z,6.50
2022-10-31T04:13:35.675Z,6.97
2022-10-31T04:16:15.988Z,8.33
2022-10-31T04:19:27.483Z,6.93
2022-10-31T04:23:33.932Z,6.97
2022-10-31T04:27:25.980Z,6.63
2022-10-31T04:30:44.717Z,7.53
2022-10-31T04:33:19.099Z,7.30
2022-10-31T04:35:57.008Z,9.40
2022-10-31T04:38:38.897Z,10.40
2022-10-31T04:41:22.947Z,8.90
2022-10-31T04:44:12.212Z,7.30
2022-10-31T04:46:53.313Z,6.43
2022-10-31T04:53:14.467Z,8.87
2022-10-31T04:56:07.459Z,12.47
2022-10-31T04:58:42.001Z,7.93
2022-10-31T05:01:19.662Z,9.33
2022-10-31T05:03:53.794Z,11.43
2022-10-31T05:06:35.960Z,9.23
2022-10-31T05:09:30.763Z,8.67
2022-10-31T05:11:58.934Z,7.57
2022-10-31T05:14:48.486Z,6.73
2022-10-31T05:39:57.031Z,7.20
2022-10-31T05:42:41.896Z,6.97
2022-10-31T05:45:12.248Z,6.37
2022-10-31T05:47:54.199Z,7.33
2022-10-31T05:50:40.613Z,6.37
2022-10-31T05:53:13.738Z,6.47
2022-10-31T05:55:45.355Z,6.10
2022-10-31T05:58:16.372Z,5.97
2022-10-31T06:00:52.692Z,6.67
2022-10-31T06:03:20.890Z,6.87
2022-10-31T06:05:55.530Z,6.57
2022-10-31T06:09:04.703Z,6.73
2022-10-31T06:12:22.144Z,5.87
2022-10-31T06:15:18.675Z,6.00
2022-10-31T06:17:59.417Z,5.70
2022-10-31T06:20:28.591Z,6.60
2022-10-31T06:23:05.082Z,5.90
2022-10-31T06:25:34.777Z,6.23
2022-10-31T06:28:04.010Z,6.50
2022-10-31T06:30:42.811Z,5.63
2022-10-31T06:33:10.693Z,6.30
2022-10-31T06:35:47.152Z,6.07
2022-10-31T06:38:15.191Z,6.87
2022-10-31T06:40:44.338Z,6.77
2022-10-31T06:43:23.474Z,6.50
2022-10-31T06:45:59.210Z,6.63
2022-10-31T06:48:33.286Z,7.27
2022-10-31T06:51:20.329Z,6.27
2022-10-31T06:53:51.062Z,6.10
2022-10-31T06:56:19.498Z,5.97
2022-10-31T06:58:55.265Z,5.67
2022-10-31T07:02:02.826Z,5.73
2022-10-31T07:04:40.818Z,6.50
2022-10-31T07:07:12.718Z,6.20
2022-10-31T07:09:48.484Z,6.63
2022-10-31T07:12:22.310Z,5.73
2022-10-31T07:15:15.759Z,4.90
2022-10-31T07:17:53.467Z,5.10
2022-10-31T07:20:23.600Z,5.23
2022-10-31T07:22:52.164Z,4.70
2022-10-31T07:25:20.624Z,4.47
2022-10-31T07:28:06.912Z,4.80
2022-10-31T07:30:36.365Z,4.70
2022-10-31T07:33:04.688Z,4.80
2022-10-31T07:35:58.268Z,4.70
2022-10-31T07:38:30.913Z,4.53
2022-10-31T07:41:04.221Z,4.90
2022-10-31T07:43:34.153Z,5.07
2022-10-31T07:46:26.862Z,4.47
2022-10-31T07:49:13.186Z,4.85
2022-10-31T07:51:59.587Z,4.95
2022-10-31T07:54:46.163Z,5.10
2022-10-31T07:57:15.182Z,4.93
2022-10-31T07:59:44.724Z,5.18
2022-10-31T08:02:14.319Z,5.25
2022-10-31T08:05:02.673Z,4.75
2022-10-31T08:07:31.049Z,4.95
2022-10-31T08:10:06.216Z,4.78
2022-10-31T08:12:35.674Z,5.03
2022-10-31T08:15:06.142Z,4.97
2022-10-31T08:17:38.718Z,4.53
2022-10-31T08:20:07.792Z,4.50
2022-10-31T08:22:43.877Z,4.78
2022-10-31T08:25:12.793Z,5.45
2022-10-31T08:27:40.720Z,5.47
2022-10-31T08:30:16.256Z,4.93
2022-10-31T08:33:01.380Z,4.85
2022-10-31T08:35:49.910Z,4.68
2022-10-31T08:38:40.489Z,4.82
2022-10-31T08:41:10.702Z,5.07
2022-10-31T08:43:38.673Z,4.72
2022-10-31T08:46:07.109Z,5.25
2022-10-31T08:48:36.357Z,4.88
2022-10-31T08:51:05.499Z,5.03
2022-10-31T08:53:33.867Z,6.10
2022-10-31T08:56:23.264Z,5.18
2022-10-31T08:58:52.035Z,4.90
2022-10-31T09:01:25.900Z,5.72
2022-10-31T09:03:55.313Z,5.68
2022-10-31T09:06:24.170Z,5.57
2022-10-31T09:08:52.210Z,6.10
2022-10-31T09:11:20.250Z,5.53
2022-10-31T09:14:08.121Z,6.07
2022-10-31T09:16:54.639Z,5.57
2022-10-31T09:19:31.469Z,5.97
2022-10-31T09:21:59.872Z,5.65
2022-10-31T09:24:28.161Z,5.95
2022-10-31T09:26:56.003Z,5.57
2022-10-31T09:29:29.805Z,5.53
2022-10-31T09:32:00.848Z,5.75
2022-10-31T09:34:34.565Z,5.50
2022-10-31T09:37:11.953Z,5.20
2022-10-31T09:39:41.382Z,5.22
2022-10-31T09:42:36.016Z,5.35
2022-10-31T09:45:15.990Z,7.22
2022-10-31T09:47:55.742Z,5.55
2022-10-31T09:50:42.152Z,4.88
2022-10-31T09:53:44.334Z,5.70
2022-10-31T09:56:18.163Z,4.78
2022-10-31T09:58:48.255Z,5.15
2022-10-31T10:01:30.980Z,5.38
2022-10-31T10:04:21.430Z,4.68
2022-10-31T10:08:05.971Z,5.47
2022-10-31T10:15:13.332Z,5.10
2022-10-31T10:17:52.657Z,4.78
2022-10-31T10:20:36.259Z,5.00
2022-10-31T10:23:27.826Z,4.80
2022-10-31T10:26:10.975Z,5.35
2022-10-31T10:28:45.004Z,4.63
2022-10-31T10:31:22.912Z,4.32
2022-10-31T10:34:26.949Z,4.30
2022-10-31T10:37:02.879Z,4.55
2022-10-31T10:39:37.049Z,4.50
2022-10-31T10:42:30.700Z,4.45
2022-10-31T10:45:17.870Z,4.47
2022-10-31T10:47:54.714Z,4.40
2022-10-31T10:50:36.083Z,4.63
2022-10-31T10:53:27.291Z,4.55
2022-10-31T10:56:18.893Z,4.57
2022-10-31T10:58:46.924Z,4.45
2022-10-31T11:03:49.187Z,5.55
2022-10-31T11:06:25.739Z,4.65
2022-10-31T11:08:54.825Z,4.78
2022-10-31T11:11:30.999Z,4.40
2022-10-31T11:14:05.403Z,4.85
2022-10-31T11:16:41.168Z,4.72
2022-10-31T11:19:16.730Z,4.40
2022-10-31T11:21:49.825Z,4.40
2022-10-31T11:24:23.854Z,4.53
2022-10-31T11:26:53.827Z,4.93
2022-10-31T11:29:25.750Z,4.55
2022-10-31T11:31:55.706Z,4.32
2022-10-31T11:34:32.636Z,4.65
2022-10-31T11:37:06.614Z,4.70
2022-10-31T11:39:34.710Z,4.53
2022-10-31T11:42:08.906Z,4.90
2022-10-31T11:44:38.191Z,4.80
2022-10-31T11:47:16.563Z,5.05
2022-10-31T11:50:15.162Z,4.53
2022-10-31T11:52:43.273Z,4.20
2022-10-31T11:55:31.336Z,4.45
2022-10-31T11:58:01.033Z,4.40
2022-10-31T12:00:31.428Z,4.40
2022-10-31T12:03:24.858Z,4.28
2022-10-31T12:06:00.792Z,4.97
2022-10-31T12:08:33.409Z,4.28
2022-10-31T12:11:12.100Z,4.53
2022-10-31T12:14:01.156Z,4.65
2022-10-31T12:16:38.902Z,4.07
2022-10-31T12:19:18.340Z,4.25
2022-10-31T12:21:58.146Z,3.90
2022-10-31T12:24:44.703Z,4.07
2022-10-31T12:27:28.368Z,4.78
2022-10-31T12:30:23.103Z,3.65
2022-10-31T12:33:20.268Z,3.90
2022-10-31T12:36:00.506Z,4.40
2022-10-31T12:38:45.360Z,4.80
2022-10-31T12:41:26.422Z,4.40
2022-10-31T12:43:59.502Z,4.40
2022-10-31T12:46:46.237Z,4.10
2022-10-31T12:49:28.571Z,4.30
2022-10-31T12:52:09.291Z,4.47
2022-10-31T12:54:52.530Z,3.92
2022-10-31T12:57:29.615Z,4.50
2022-10-31T13:00:02.779Z,4.40
2022-10-31T13:02:37.042Z,4.55
2022-10-31T13:05:13.024Z,4.85
2022-10-31T13:07:46.359Z,5.10
2022-10-31T13:10:20.143Z,4.70
2022-10-31T13:12:55.433Z,4.82
2022-10-31T13:15:25.826Z,4.47
2022-10-31T13:17:58.462Z,4.53
2022-10-31T13:20:29.847Z,4.57
2022-10-31T13:23:17.642Z,4.35
2022-10-31T13:25:55.118Z,4.75
2022-10-31T13:28:32.401Z,4.53
2022-10-31T13:31:00.091Z,4.18
2022-10-31T13:33:33.948Z,3.75
2022-10-31T13:36:16.805Z,4.38
2022-10-31T13:38:52.930Z,4.20
2022-10-31T13:41:34.543Z,4.80
2022-10-31T13:44:05.838Z,3.85
2022-10-31T13:46:40.248Z,3.75
2022-10-31T13:49:40.710Z,4.40
2022-10-31T13:52:17.629Z,3.78
2022-10-31T13:54:47.632Z,4.03
2022-10-31T13:57:20.532Z,4.60
2022-10-31T13:59:55.686Z,4.00
2022-10-31T14:02:28.923Z,4.25
2022-10-31T14:05:01.949Z,4.30
2022-10-31T14:07:31.684Z,4.25
2022-10-31T14:10:03.518Z,4.00
2022-10-31T14:12:35.538Z,4.35
2022-10-31T14:15:14.730Z,4.28
2022-10-31T14:17:52.212Z,4.43
2022-10-31T14:20:35.984Z,4.43
2022-10-31T14:23:35.253Z,4.18
2022-10-31T14:26:20.726Z,4.15
2022-10-31T14:28:50.334Z,4.35
2022-10-31T14:31:37.902Z,4.88
2022-10-31T14:34:23.024Z,4.22
2022-10-31T14:37:18.399Z,4.88
2022-10-31T14:39:59.465Z,4.20
2022-10-31T14:42:47.249Z,4.65
2022-10-31T14:45:30.924Z,3.83
2022-10-31T14:48:13.668Z,4.65
2022-10-31T14:50:51.056Z,4.07
2022-10-31T14:53:25.598Z,4.40
2022-10-31T14:55:55.289Z,4.32
2022-10-31T14:58:25.857Z,3.88
2022-10-31T15:00:57.590Z,4.50
2022-10-31T15:03:31.788Z,4.57
2022-10-31T15:06:03.487Z,4.10
2022-10-31T15:08:40.484Z,4.43
2022-10-31T15:11:13.330Z,4.00
2022-10-31T15:13:46.431Z,4.43
2022-10-31T15:16:16.621Z,3.75
2022-10-31T15:18:51.612Z,3.60
2022-10-31T15:21:21.236Z,4.45
2022-10-31T15:23:52.679Z,3.85
2022-10-31T15:26:23.361Z,3.80
2022-10-31T15:29:00.916Z,4.13
2022-10-31T15:31:28.653Z,4.03
2022-10-31T15:34:00.578Z,4.25
2022-10-31T15:36:29.876Z,3.88
2022-10-31T15:39:00.921Z,5.07
2022-10-31T15:41:35.399Z,4.28
2022-10-31T15:44:09.559Z,4.30
2022-10-31T15:46:37.724Z,3.95
2022-10-31T15:49:05.901Z,4.28
2022-10-31T15:51:38.272Z,4.22
2022-10-31T15:54:13.191Z,4.57
2022-10-31T15:56:41.161Z,4.50
2022-10-31T15:59:21.374Z,4.10
2022-10-31T16:02:02.865Z,4.15
2022-10-31T16:04:31.466Z,3.90
2022-10-31T16:07:04.330Z,5.85
2022-10-31T16:09:33.572Z,5.38
2022-10-31T16:12:01.348Z,4.72
2022-10-31T16:14:32.628Z,4.65
2022-10-31T16:17:01.564Z,5.00
2022-10-31T16:19:31.935Z,4.65
2022-10-31T16:22:07.487Z,5.25
2022-10-31T16:24:48.504Z,17.95
2022-10-31T16:27:20.741Z,15.10
2022-10-31T16:29:49.364Z,9.25
2022-10-31T16:32:32.845Z,12.52
2022-10-31T16:35:04.094Z,8.63
2022-10-31T16:37:32.078Z,6.38
2022-10-31T16:40:01.898Z,5.32
2022-10-31T16:42:30.174Z,5.40
2022-10-31T16:44:58.260Z,4.70
2022-10-31T16:47:28.618Z,5.10
2022-10-31T16:50:00.689Z,7.60
2022-10-31T16:52:37.943Z,12.77
2022-10-31T16:55:15.145Z,32.35
2022-10-31T16:57:46.078Z,32.20
2022-10-31T17:00:18.573Z,30.10
2022-10-31T17:02:47.927Z,25.90
2022-10-31T17:05:17.496Z,25.58
2022-10-31T17:07:45.957Z,119.63
2022-10-31T17:10:16.894Z,151.05
2022-10-31T17:12:57.463Z,95.95
2022-10-31T17:15:27.780Z,59.03
2022-10-31T17:17:56.456Z,61.13
2022-10-31T17:20:26.276Z,30.88
2022-10-31T17:22:54.949Z,20.15
2022-10-31T17:25:26.216Z,29.48
2022-10-31T17:27:54.371Z,25.13
2022-10-31T17:30:23.628Z,31.42
2022-10-31T17:32:52.402Z,43.45
2022-10-31T17:35:20.437Z,43.05
2022-10-31T17:37:49.137Z,22.92
2022-10-31T17:40:19.675Z,15.85
2022-10-31T17:42:52.838Z,18.52
2022-10-31T17:45:21.681Z,20.10
2022-10-31T17:47:51.610Z,10.68
2022-10-31T17:50:21.188Z,8.00
2022-10-31T17:52:49.784Z,6.80
2022-10-31T17:55:18.863Z,6.93
2022-10-31T17:57:47.145Z,7.25
2022-10-31T18:00:22.728Z,6.57
2022-10-31T18:03:05.837Z,6.20
2022-10-31T18:05:38.606Z,6.10
2022-10-31T18:08:07.732Z,6.03
2022-10-31T18:10:36.689Z,5.93
2022-10-31T18:13:07.683Z,8.18
2022-10-31T18:15:40.485Z,8.52
2022-10-31T18:18:08.647Z,7.38
2022-10-31T18:20:37.089Z,5.53
2022-10-31T18:23:08.481Z,6.30
2022-10-31T18:25:41.001Z,7.28
2022-10-31T18:28:09.539Z,7.65
2022-10-31T18:30:43.427Z,7.28
2022-10-31T18:33:13.949Z,9.43
2022-10-31T18:35:44.631Z,8.90
2022-10-31T18:38:15.401Z,45.38
2022-10-31T18:40:45.952Z,37.38
2022-10-31T18:43:16.770Z,62.67
2022-10-31T18:45:48.636Z,12.13
2022-10-31T18:48:18.468Z,11.50
2022-10-31T18:50:46.876Z,8.90
2022-10-31T18:53:14.699Z,13.43
2022-10-31T18:55:47.251Z,15.75
2022-10-31T18:58:19.025Z,8.98
2022-10-31T19:00:48.240Z,14.05
2022-10-31T19:03:18.771Z,17.08
2022-10-31T19:05:48.705Z,14.75
2022-10-31T19:08:17.140Z,17.73
2022-10-31T19:10:45.014Z,20.23
2022-10-31T19:13:14.892Z,23.35
2022-10-31T19:15:43.509Z,22.25
2022-10-31T19:18:14.543Z,17.52
2022-10-31T19:20:44.908Z,36.28
2022-10-31T19:23:12.855Z,28.38
2022-10-31T19:25:40.863Z,33.72
2022-10-31T19:28:11.338Z,31.83
2022-10-31T19:30:39.108Z,33.05
2022-10-31T19:33:07.156Z,32.05
2022-10-31T19:35:37.440Z,24.00
2022-10-31T19:38:05.214Z,34.42
2022-10-31T19:40:32.923Z,18.63
2022-10-31T19:43:00.781Z,16.33
2022-10-31T19:45:28.458Z,13.35
2022-10-31T19:47:56.142Z,10.52
2022-10-31T19:50:23.869Z,9.60
2022-10-31T19:52:53.129Z,18.30
2022-10-31T19:55:20.876Z,14.95
2022-10-31T19:58:01.455Z,9.60
2022-10-31T20:00:29.989Z,14.25
2022-10-31T20:02:58.001Z,12.25
2022-10-31T20:05:25.967Z,14.40
2022-10-31T20:07:56.447Z,13.68
2022-10-31T20:10:25.126Z,18.13
2022-10-31T20:12:53.083Z,17.27
2022-10-31T20:15:24.438Z,25.27
2022-10-31T20:17:56.217Z,27.27
2022-10-31T20:20:28.424Z,25.13
2022-10-31T20:22:59.713Z,21.70
2022-10-31T20:25:28.134Z,27.02
2022-10-31T20:27:56.137Z,26.17
2022-10-31T20:30:34.371Z,26.17
2022-10-31T20:33:05.802Z,16.65
2022-10-31T20:35:37.800Z,20.15
2022-10-31T20:38:07.934Z,26.40
2022-10-31T20:40:37.060Z,26.17
2022-10-31T20:43:06.175Z,21.70
2022-10-31T20:45:35.964Z,27.15
2022-10-31T20:48:04.864Z,17.63
2022-10-31T20:50:33.361Z,16.08
2022-10-31T20:53:01.665Z,17.50
2022-10-31T20:55:30.957Z,18.38
2022-10-31T20:57:58.662Z,29.42
2022-10-31T21:00:26.345Z,28.95
2022-10-31T21:02:54.177Z,39.13
2022-10-31T21:05:25.278Z,54.55
2022-10-31T21:07:53.785Z,35.97
2022-10-31T21:10:25.404Z,35.70
2022-10-31T21:12:58.942Z,49.75
2022-10-31T21:15:32.084Z,27.42
2022-10-31T21:18:02.982Z,22.48
2022-10-31T21:20:31.672Z,25.30
2022-10-31T21:23:02.468Z,12.95
2022-10-31T21:28:33.469Z,9.02
2022-10-31T21:33:52.808Z,9.05
2022-10-31T21:36:21.894Z,12.07
2022-10-31T21:39:00.325Z,11.98
2022-10-31T21:41:30.474Z,14.52
2022-10-31T21:44:00.576Z,16.90
2022-10-31T21:46:30.297Z,15.80
2022-10-31T21:48:59.348Z,24.17
2022-10-31T21:51:31.513Z,21.40
2022-10-31T21:54:17.524Z,18.95
2022-10-31T21:56:46.019Z,19.33
2022-10-31T21:59:15.568Z,15.05
2022-10-31T22:01:59.063Z,14.40
2022-10-31T22:04:29.814Z,16.73
2022-10-31T22:06:59.271Z,14.57
2022-10-31T22:09:27.382Z,11.48
2022-10-31T22:11:57.912Z,12.57
2022-10-31T22:14:27.246Z,18.23
2022-10-31T22:16:55.207Z,10.07
2022-10-31T22:19:23.310Z,15.57
2022-10-31T22:21:51.142Z,13.80
2022-10-31T22:24:19.700Z,13.90
2022-10-31T22:26:48.040Z,10.90
2022-10-31T22:29:18.792Z,12.35
2022-10-31T22:32:13.757Z,12.43
2022-10-31T22:34:44.096Z,8.73
2022-10-31T22:37:19.783Z,8.73
2022-10-31T22:39:52.819Z,10.15
2022-10-31T22:42:21.235Z,8.68
2022-10-31T22:44:49.466Z,8.70
2022-10-31T22:47:19.130Z,11.55
2022-10-31T22:49:47.266Z,7.50
2022-10-31T22:52:15.905Z,6.85
2022-10-31T22:54:44.172Z,6.95
2022-10-31T22:57:12.232Z,6.97
2022-10-31T22:59:40.313Z,6.63
2022-10-31T23:02:08.694Z,6.95
2022-10-31T23:04:41.082Z,7.18
2022-10-31T23:07:12.357Z,9.20
2022-10-31T23:09:42.552Z,9.70
2022-10-31T23:12:24.389Z,16.83
2022-10-31T23:14:52.815Z,18.35
2022-10-31T23:17:21.042Z,23.38
2022-10-31T23:19:50.634Z,27.27
2022-10-31T23:22:18.892Z,13.48
2022-10-31T23:24:48.827Z,19.45
2022-10-31T23:27:22.591Z,10.43
2022-10-31T23:30:09.417Z,11.07
2022-10-31T23:32:40.946Z,9.70
2022-10-31T23:35:11.423Z,9.40
2022-10-31T23:37:41.031Z,14.02
2022-10-31T23:40:10.650Z,10.85
2022-10-31T23:42:39.969Z,9.45
2022-10-31T23:45:10.137Z,10.32
2022-10-31T23:47:42.403Z,8.63
2022-10-31T23:50:14.339Z,9.80
2022-10-31T23:52:42.395Z,11.70
2022-10-31T23:55:10.642Z,7.65
2022-10-31T23:57:38.691Z,37.03
